Preview of NWS' New Version of Forecast
This preview is not operational and should not be used for support decisions.

Terminal Aerodrome Forecast (TAF)

Issued by National Weather Service (NWS)

                            
000
FTUS42 KCAE 181137
TAFOGB
TAF
KOGB 181137Z 1812/1912 07010KT P6SM VCSH OVC040
      TEMPO 1812/1813 -SHRA BKN028
     FM190000 07004KT P6SM SCT035=